sensor_id;sensor_type;location;lat;lon;timestamp;P1;durP1;ratioP1;P2;durP2;ratioP2
76393;SDS011;65216;51.090;-115.352;2023-02-22T01:49:56;20.70;;;2.60;;
76393;SDS011;65216;51.090;-115.352;2023-02-22T05:01:22;10.80;;;2.50;;
76393;SDS011;65216;51.090;-115.352;2023-02-22T05:04:22;14.10;;;2.80;;
76393;SDS011;65216;51.090;-115.352;2023-02-22T05:11:27;10.80;;;2.60;;
76393;SDS011;65216;51.090;-115.352;2023-02-22T05:17:57;6.40;;;2.10;;
76393;SDS011;65216;51.090;-115.352;2023-02-22T05:24:58;8.20;;;1.80;;
76393;SDS011;65216;51.090;-115.352;2023-02-22T05:28:10;10.40;;;2.30;;
76393;SDS011;65216;51.090;-115.352;2023-02-22T05:31:29;6.00;;;2.00;;
76393;SDS011;65216;51.090;-115.352;2023-02-22T05:34:31;4.40;;;1.90;;
76393;SDS011;65216;51.090;-115.352;2023-02-22T05:37:10;7.50;;;1.90;;
76393;SDS011;65216;51.090;-115.352;2023-02-22T05:40:11;5.30;;;1.60;;
76393;SDS011;65216;51.090;-115.352;2023-02-22T06:31:29;2.60;;;1.20;;
76393;SDS011;65216;51.090;-115.352;2023-02-22T06:33:59;3.30;;;1.30;;
76393;SDS011;65216;51.090;-115.352;2023-02-22T06:36:26;3.80;;;1.40;;
76393;SDS011;65216;51.090;-115.352;2023-02-22T06:38:57;5.60;;;1.40;;
76393;SDS011;65216;51.090;-115.352;2023-02-22T06:41:25;4.10;;;1.50;;
76393;SDS011;65216;51.090;-115.352;2023-02-22T06:43:52;7.20;;;1.30;;
76393;SDS011;65216;51.090;-115.352;2023-02-22T06:46:20;3.70;;;1.40;;
76393;SDS011;65216;51.090;-115.352;2023-02-22T06:48:47;4.00;;;1.30;;
76393;SDS011;65216;51.090;-115.352;2023-02-22T06:51:16;4.60;;;1.50;;
76393;SDS011;65216;51.090;-115.352;2023-02-22T06:53:44;3.40;;;1.30;;
76393;SDS011;65216;51.090;-115.352;2023-02-22T06:56:11;3.60;;;1.20;;
76393;SDS011;65216;51.090;-115.352;2023-02-22T06:58:39;4.70;;;1.30;;
76393;SDS011;65216;51.090;-115.352;2023-02-22T07:01:06;4.30;;;1.20;;
76393;SDS011;65216;51.090;-115.352;2023-02-22T07:03:36;3.80;;;1.30;;
76393;SDS011;65216;51.090;-115.352;2023-02-22T07:06:06;2.90;;;1.10;;
76393;SDS011;65216;51.090;-115.352;2023-02-22T07:08:33;2.90;;;1.20;;
76393;SDS011;65216;51.090;-115.352;2023-02-22T07:11:00;3.70;;;1.40;;
76393;SDS011;65216;51.090;-115.352;2023-02-22T07:13:28;3.20;;;1.20;;
76393;SDS011;65216;51.090;-115.352;2023-02-22T07:15:56;3.40;;;1.30;;
76393;SDS011;65216;51.090;-115.352;2023-02-22T07:18:23;3.90;;;1.30;;
76393;SDS011;65216;51.090;-115.352;2023-02-22T07:20:51;2.70;;;1.00;;
76393;SDS011;65216;51.090;-115.352;2023-02-22T07:23:19;3.60;;;1.30;;
76393;SDS011;65216;51.090;-115.352;2023-02-22T07:25:47;3.70;;;1.40;;
76393;SDS011;65216;51.090;-115.352;2023-02-22T07:28:15;4.40;;;1.30;;
76393;SDS011;65216;51.090;-115.352;2023-02-22T07:30:45;5.00;;;1.40;;
76393;SDS011;65216;51.090;-115.352;2023-02-22T07:33:12;2.90;;;1.20;;
76393;SDS011;65216;51.090;-115.352;2023-02-22T07:35:45;3.50;;;1.20;;
76393;SDS011;65216;51.090;-115.352;2023-02-22T07:38:16;3.80;;;1.60;;
76393;SDS011;65216;51.090;-115.352;2023-02-22T07:40:44;3.80;;;1.40;;
76393;SDS011;65216;51.090;-115.352;2023-02-22T07:43:20;4.30;;;1.50;;
76393;SDS011;65216;51.090;-115.352;2023-02-22T07:45:50;3.70;;;1.30;;
76393;SDS011;65216;51.090;-115.352;2023-02-22T07:48:21;5.10;;;1.40;;
76393;SDS011;65216;51.090;-115.352;2023-02-22T07:50:52;2.80;;;1.00;;
76393;SDS011;65216;51.090;-115.352;2023-02-22T07:53:29;5.00;;;1.30;;
76393;SDS011;65216;51.090;-115.352;2023-02-22T07:56:00;5.10;;;1.80;;
76393;SDS011;65216;51.090;-115.352;2023-02-22T07:58:31;4.90;;;1.20;;
76393;SDS011;65216;51.090;-115.352;2023-02-22T08:00:58;3.40;;;1.30;;
76393;SDS011;65216;51.090;-115.352;2023-02-22T08:03:31;3.90;;;1.30;;
76393;SDS011;65216;51.090;-115.352;2023-02-22T08:06:01;3.20;;;1.50;;
76393;SDS011;65216;51.090;-115.352;2023-02-22T08:08:30;3.40;;;1.20;;
76393;SDS011;65216;51.090;-115.352;2023-02-22T08:10:57;3.00;;;1.20;;
76393;SDS011;65216;51.090;-115.352;2023-02-22T08:13:25;2.90;;;1.50;;
76393;SDS011;65216;51.090;-115.352;2023-02-22T08:15:53;2.40;;;1.00;;
76393;SDS011;65216;51.090;-115.352;2023-02-22T08:18:22;3.40;;;1.10;;
76393;SDS011;65216;51.090;-115.352;2023-02-22T08:20:51;2.60;;;1.00;;
76393;SDS011;65216;51.090;-115.352;2023-02-22T08:23:21;3.30;;;1.10;;
76393;SDS011;65216;51.090;-115.352;2023-02-22T08:25:51;3.10;;;1.20;;
76393;SDS011;65216;51.090;-115.352;2023-02-22T08:28:20;3.60;;;1.10;;
76393;SDS011;65216;51.090;-115.352;2023-02-22T08:30:49;2.60;;;0.90;;
76393;SDS011;65216;51.090;-115.352;2023-02-22T08:33:20;2.60;;;1.00;;
76393;SDS011;65216;51.090;-115.352;2023-02-22T08:35:49;2.10;;;1.00;;
76393;SDS011;65216;51.090;-115.352;2023-02-22T08:38:23;2.30;;;1.10;;
76393;SDS011;65216;51.090;-115.352;2023-02-22T08:40:53;2.50;;;0.90;;
76393;SDS011;65216;51.090;-115.352;2023-02-22T08:43:21;2.60;;;1.10;;
76393;SDS011;65216;51.090;-115.352;2023-02-22T08:45:49;2.00;;;0.90;;
76393;SDS011;65216;51.090;-115.352;2023-02-22T08:48:17;1.90;;;0.80;;
76393;SDS011;65216;51.090;-115.352;2023-02-22T08:50:44;2.80;;;1.10;;
76393;SDS011;65216;51.090;-115.352;2023-02-22T08:53:13;2.50;;;0.90;;
76393;SDS011;65216;51.090;-115.352;2023-02-22T08:55:41;2.30;;;0.90;;
76393;SDS011;65216;51.090;-115.352;2023-02-22T08:58:10;2.40;;;1.00;;
76393;SDS011;65216;51.090;-115.352;2023-02-22T09:00:38;2.20;;;1.00;;
76393;SDS011;65216;51.090;-115.352;2023-02-22T09:03:08;2.30;;;1.00;;
76393;SDS011;65216;51.090;-115.352;2023-02-22T09:05:43;2.00;;;0.90;;
76393;SDS011;65216;51.090;-115.352;2023-02-22T09:08:15;2.30;;;0.90;;
76393;SDS011;65216;51.090;-115.352;2023-02-22T09:10:42;2.30;;;0.90;;
76393;SDS011;65216;51.090;-115.352;2023-02-22T09:13:11;3.70;;;0.90;;
76393;SDS011;65216;51.090;-115.352;2023-02-22T09:15:45;2.90;;;0.90;;
76393;SDS011;65216;51.090;-115.352;2023-02-22T09:18:16;2.00;;;0.80;;
76393;SDS011;65216;51.090;-115.352;2023-02-22T09:20:43;2.70;;;0.90;;
76393;SDS011;65216;51.090;-115.352;2023-02-22T09:23:20;2.70;;;1.00;;
76393;SDS011;65216;51.090;-115.352;2023-02-22T09:25:53;2.10;;;0.90;;
76393;SDS011;65216;51.090;-115.352;2023-02-22T09:28:24;2.60;;;1.00;;
76393;SDS011;65216;51.090;-115.352;2023-02-22T09:30:55;2.30;;;0.90;;
76393;SDS011;65216;51.090;-115.352;2023-02-22T09:33:22;2.70;;;1.10;;
76393;SDS011;65216;51.090;-115.352;2023-02-22T09:35:51;2.90;;;1.20;;
76393;SDS011;65216;51.090;-115.352;2023-02-22T09:38:23;3.20;;;1.30;;
76393;SDS011;65216;51.090;-115.352;2023-02-22T09:41:24;2.60;;;1.20;;
76393;SDS011;65216;51.090;-115.352;2023-02-22T09:44:14;2.50;;;1.00;;
76393;SDS011;65216;51.090;-115.352;2023-02-22T09:46:46;3.40;;;1.40;;
76393;SDS011;65216;51.090;-115.352;2023-02-22T09:49:17;2.60;;;1.20;;
76393;SDS011;65216;51.090;-115.352;2023-02-22T09:52:29;2.80;;;1.10;;
76393;SDS011;65216;51.090;-115.352;2023-02-22T09:58:30;3.40;;;1.40;;
76393;SDS011;65216;51.090;-115.352;2023-02-22T10:04:29;2.90;;;1.20;;
76393;SDS011;65216;51.090;-115.352;2023-02-22T10:07:05;2.80;;;1.40;;
76393;SDS011;65216;51.090;-115.352;2023-02-22T10:09:54;3.50;;;1.50;;
76393;SDS011;65216;51.090;-115.352;2023-02-22T10:12:35;3.20;;;1.20;;
76393;SDS011;65216;51.090;-115.352;2023-02-22T10:15:41;3.80;;;1.70;;
76393;SDS011;65216;51.090;-115.352;2023-02-22T10:21:25;3.50;;;1.40;;
76393;SDS011;65216;51.090;-115.352;2023-02-22T10:26:35;3.30;;;1.60;;
76393;SDS011;65216;51.090;-115.352;2023-02-22T10:32:17;3.80;;;1.60;;
76393;SDS011;65216;51.090;-115.352;2023-02-22T10:34:51;3.70;;;1.70;;
76393;SDS011;65216;51.090;-115.352;2023-02-22T10:37:32;3.60;;;1.90;;
76393;SDS011;65216;51.090;-115.352;2023-02-22T10:40:15;3.90;;;1.60;;
76393;SDS011;65216;51.090;-115.352;2023-02-22T10:42:45;3.60;;;1.50;;
76393;SDS011;65216;51.090;-115.352;2023-02-22T10:45:29;3.20;;;1.30;;
76393;SDS011;65216;51.090;-115.352;2023-02-22T10:48:02;3.30;;;1.30;;
76393;SDS011;65216;51.090;-115.352;2023-02-22T10:50:36;3.20;;;1.40;;
76393;SDS011;65216;51.090;-115.352;2023-02-22T10:53:09;3.60;;;1.60;;
76393;SDS011;65216;51.090;-115.352;2023-02-22T11:02:24;4.10;;;1.70;;
76393;SDS011;65216;51.090;-115.352;2023-02-22T11:04:57;3.80;;;1.70;;
76393;SDS011;65216;51.090;-115.352;2023-02-22T11:10:07;5.90;;;1.90;;
76393;SDS011;65216;51.090;-115.352;2023-02-22T11:12:44;3.90;;;2.00;;
76393;SDS011;65216;51.090;-115.352;2023-02-22T11:17:51;3.90;;;1.70;;
76393;SDS011;65216;51.090;-115.352;2023-02-22T11:20:28;3.70;;;1.70;;
76393;SDS011;65216;51.090;-115.352;2023-02-22T11:23:03;3.80;;;1.90;;
76393;SDS011;65216;51.090;-115.352;2023-02-22T11:25:39;3.80;;;1.60;;
76393;SDS011;65216;51.090;-115.352;2023-02-22T11:28:16;3.50;;;1.50;;
76393;SDS011;65216;51.090;-115.352;2023-02-22T11:31:07;3.20;;;1.60;;
76393;SDS011;65216;51.090;-115.352;2023-02-22T11:36:37;4.20;;;1.60;;
76393;SDS011;65216;51.090;-115.352;2023-02-22T11:41:50;3.50;;;1.50;;
76393;SDS011;65216;51.090;-115.352;2023-02-22T11:44:31;2.80;;;1.50;;
76393;SDS011;65216;51.090;-115.352;2023-02-22T11:47:02;3.40;;;1.40;;
76393;SDS011;65216;51.090;-115.352;2023-02-22T11:49:39;4.70;;;1.90;;
76393;SDS011;65216;51.090;-115.352;2023-02-22T11:52:24;3.60;;;1.50;;
76393;SDS011;65216;51.090;-115.352;2023-02-22T11:55:25;3.40;;;1.40;;
76393;SDS011;65216;51.090;-115.352;2023-02-22T12:01:38;3.20;;;1.50;;
76393;SDS011;65216;51.090;-115.352;2023-02-22T12:05:09;3.40;;;1.50;;
76393;SDS011;65216;51.090;-115.352;2023-02-22T12:13:38;3.40;;;1.50;;
76393;SDS011;65216;51.090;-115.352;2023-02-22T12:21:53;3.40;;;1.40;;
76393;SDS011;65216;51.090;-115.352;2023-02-22T12:24:42;3.50;;;1.40;;
76393;SDS011;65216;51.090;-115.352;2023-02-22T12:30:19;5.00;;;1.70;;
76393;SDS011;65216;51.090;-115.352;2023-02-22T12:32:56;4.00;;;1.60;;
76393;SDS011;65216;51.090;-115.352;2023-02-22T12:35:35;2.90;;;1.20;;
76393;SDS011;65216;51.090;-115.352;2023-02-22T12:38:31;3.00;;;1.40;;
76393;SDS011;65216;51.090;-115.352;2023-02-22T12:41:52;2.90;;;1.20;;
76393;SDS011;65216;51.090;-115.352;2023-02-22T12:44:16;2.80;;;1.10;;
76393;SDS011;65216;51.090;-115.352;2023-02-22T12:46:54;3.20;;;1.30;;
76393;SDS011;65216;51.090;-115.352;2023-02-22T12:49:50;2.30;;;1.00;;
76393;SDS011;65216;51.090;-115.352;2023-02-22T12:55:45;2.90;;;1.20;;
76393;SDS011;65216;51.090;-115.352;2023-02-22T13:01:20;2.70;;;1.20;;
76393;SDS011;65216;51.090;-115.352;2023-02-22T13:03:53;3.30;;;1.20;;
76393;SDS011;65216;51.090;-115.352;2023-02-22T13:15:34;2.50;;;1.20;;
76393;SDS011;65216;51.090;-115.352;2023-02-22T13:18:30;3.40;;;1.40;;
76393;SDS011;65216;51.090;-115.352;2023-02-22T13:21:26;3.10;;;1.30;;
76393;SDS011;65216;51.090;-115.352;2023-02-22T13:30:35;3.00;;;1.20;;
76393;SDS011;65216;51.090;-115.352;2023-02-22T13:39:53;2.60;;;1.10;;
76393;SDS011;65216;51.090;-115.352;2023-02-22T13:42:39;2.60;;;1.10;;
76393;SDS011;65216;51.090;-115.352;2023-02-22T13:48:42;3.20;;;1.30;;
76393;SDS011;65216;51.090;-115.352;2023-02-22T13:56:56;3.50;;;1.50;;
76393;SDS011;65216;51.090;-115.352;2023-02-22T13:59:30;3.40;;;1.30;;
76393;SDS011;65216;51.090;-115.352;2023-02-22T14:02:03;3.50;;;1.40;;
76393;SDS011;65216;51.090;-115.352;2023-02-22T14:04:40;3.30;;;1.40;;
76393;SDS011;65216;51.090;-115.352;2023-02-22T14:09:54;2.80;;;1.30;;
76393;SDS011;65216;51.090;-115.352;2023-02-22T14:12:46;3.00;;;1.30;;
76393;SDS011;65216;51.090;-115.352;2023-02-22T14:15:17;2.50;;;1.20;;
76393;SDS011;65216;51.090;-115.352;2023-02-22T14:18:03;3.00;;;1.20;;
76393;SDS011;65216;51.090;-115.352;2023-02-22T14:20:33;3.20;;;1.30;;
76393;SDS011;65216;51.090;-115.352;2023-02-22T14:23:26;3.60;;;1.50;;
76393;SDS011;65216;51.090;-115.352;2023-02-22T14:34:20;3.30;;;1.20;;
76393;SDS011;65216;51.090;-115.352;2023-02-22T14:36:57;3.00;;;1.30;;
76393;SDS011;65216;51.090;-115.352;2023-02-22T14:45:12;2.90;;;1.30;;
76393;SDS011;65216;51.090;-115.352;2023-02-22T14:48:21;3.30;;;1.30;;
76393;SDS011;65216;51.090;-115.352;2023-02-22T14:51:21;2.60;;;1.20;;
76393;SDS011;65216;51.090;-115.352;2023-02-22T14:54:14;3.80;;;1.50;;
76393;SDS011;65216;51.090;-115.352;2023-02-22T15:00:18;2.90;;;1.30;;
76393;SDS011;65216;51.090;-115.352;2023-02-22T15:02:57;3.60;;;1.40;;
76393;SDS011;65216;51.090;-115.352;2023-02-22T15:05:28;3.10;;;1.50;;
76393;SDS011;65216;51.090;-115.352;2023-02-22T15:08:06;5.00;;;1.60;;
76393;SDS011;65216;51.090;-115.352;2023-02-22T15:10:46;3.40;;;1.40;;
76393;SDS011;65216;51.090;-115.352;2023-02-22T15:13:26;4.00;;;1.50;;
76393;SDS011;65216;51.090;-115.352;2023-02-22T15:16:04;2.70;;;1.20;;
76393;SDS011;65216;51.090;-115.352;2023-02-22T15:18:39;3.20;;;1.20;;
76393;SDS011;65216;51.090;-115.352;2023-02-22T15:21:11;2.90;;;1.20;;
76393;SDS011;65216;51.090;-115.352;2023-02-22T15:23:49;3.30;;;1.30;;
76393;SDS011;65216;51.090;-115.352;2023-02-22T15:26:36;2.80;;;1.20;;
76393;SDS011;65216;51.090;-115.352;2023-02-22T15:29:34;3.10;;;1.40;;
76393;SDS011;65216;51.090;-115.352;2023-02-22T15:32:17;3.60;;;1.50;;
76393;SDS011;65216;51.090;-115.352;2023-02-22T15:37:39;2.90;;;1.30;;
76393;SDS011;65216;51.090;-115.352;2023-02-22T15:40:29;3.20;;;1.50;;
76393;SDS011;65216;51.090;-115.352;2023-02-22T15:43:00;3.90;;;1.20;;
76393;SDS011;65216;51.090;-115.352;2023-02-22T15:45:35;4.10;;;1.30;;
76393;SDS011;65216;51.090;-115.352;2023-02-22T15:48:11;4.30;;;1.50;;
76393;SDS011;65216;51.090;-115.352;2023-02-22T15:51:02;4.10;;;1.50;;
76393;SDS011;65216;51.090;-115.352;2023-02-22T15:53:52;3.90;;;1.70;;
76393;SDS011;65216;51.090;-115.352;2023-02-22T15:56:29;3.90;;;1.40;;
76393;SDS011;65216;51.090;-115.352;2023-02-22T15:59:13;4.50;;;1.50;;
76393;SDS011;65216;51.090;-115.352;2023-02-22T16:01:50;5.80;;;1.60;;
76393;SDS011;65216;51.090;-115.352;2023-02-22T16:04:21;4.10;;;1.40;;
76393;SDS011;65216;51.090;-115.352;2023-02-22T16:09:28;6.00;;;1.50;;
76393;SDS011;65216;51.090;-115.352;2023-02-22T16:12:29;4.20;;;1.70;;
76393;SDS011;65216;51.090;-115.352;2023-02-22T16:14:58;5.80;;;2.20;;
76393;SDS011;65216;51.090;-115.352;2023-02-22T16:17:48;4.30;;;1.50;;
76393;SDS011;65216;51.090;-115.352;2023-02-22T16:22:56;4.00;;;1.70;;
76393;SDS011;65216;51.090;-115.352;2023-02-22T16:25:29;9.00;;;1.60;;
76393;SDS011;65216;51.090;-115.352;2023-02-22T16:28:26;4.90;;;1.90;;
76393;SDS011;65216;51.090;-115.352;2023-02-22T16:31:00;7.70;;;1.60;;
76393;SDS011;65216;51.090;-115.352;2023-02-22T16:33:28;9.00;;;1.90;;
76393;SDS011;65216;51.090;-115.352;2023-02-22T16:36:05;7.30;;;2.10;;
76393;SDS011;65216;51.090;-115.352;2023-02-22T16:38:33;9.50;;;2.10;;
76393;SDS011;65216;51.090;-115.352;2023-02-22T16:41:05;6.50;;;1.70;;
76393;SDS011;65216;51.090;-115.352;2023-02-22T16:43:34;8.10;;;1.80;;
76393;SDS011;65216;51.090;-115.352;2023-02-22T16:46:04;10.60;;;2.40;;
76393;SDS011;65216;51.090;-115.352;2023-02-22T16:48:33;8.40;;;2.20;;
76393;SDS011;65216;51.090;-115.352;2023-02-22T16:51:24;7.80;;;2.10;;
76393;SDS011;65216;51.090;-115.352;2023-02-22T16:53:54;9.50;;;2.10;;
76393;SDS011;65216;51.090;-115.352;2023-02-22T16:56:26;9.50;;;2.00;;
76393;SDS011;65216;51.090;-115.352;2023-02-22T16:58:55;10.10;;;2.30;;
76393;SDS011;65216;51.090;-115.352;2023-02-22T17:01:26;9.60;;;2.20;;
76393;SDS011;65216;51.090;-115.352;2023-02-22T17:03:53;11.90;;;2.00;;
76393;SDS011;65216;51.090;-115.352;2023-02-22T17:06:21;9.20;;;2.10;;
76393;SDS011;65216;51.090;-115.352;2023-02-22T17:08:48;8.70;;;2.10;;
76393;SDS011;65216;51.090;-115.352;2023-02-22T17:11:18;10.40;;;2.10;;
76393;SDS011;65216;51.090;-115.352;2023-02-22T17:13:48;13.30;;;2.30;;
76393;SDS011;65216;51.090;-115.352;2023-02-22T17:16:20;11.80;;;2.20;;
76393;SDS011;65216;51.090;-115.352;2023-02-22T17:18:48;13.70;;;2.10;;
76393;SDS011;65216;51.090;-115.352;2023-02-22T17:21:30;10.30;;;1.90;;
76393;SDS011;65216;51.090;-115.352;2023-02-22T17:23:57;8.00;;;2.00;;
76393;SDS011;65216;51.090;-115.352;2023-02-22T17:26:25;10.20;;;2.00;;
76393;SDS011;65216;51.090;-115.352;2023-02-22T17:28:53;9.80;;;2.10;;
76393;SDS011;65216;51.090;-115.352;2023-02-22T17:31:23;14.20;;;2.40;;
76393;SDS011;65216;51.090;-115.352;2023-02-22T17:33:56;10.20;;;2.20;;
76393;SDS011;65216;51.090;-115.352;2023-02-22T17:36:28;9.40;;;1.90;;
76393;SDS011;65216;51.090;-115.352;2023-02-22T17:38:59;9.00;;;2.00;;
76393;SDS011;65216;51.090;-115.352;2023-02-22T17:41:26;9.80;;;2.20;;
76393;SDS011;65216;51.090;-115.352;2023-02-22T17:43:54;9.50;;;2.10;;
76393;SDS011;65216;51.090;-115.352;2023-02-22T17:46:24;8.70;;;2.20;;
76393;SDS011;65216;51.090;-115.352;2023-02-22T17:48:51;10.30;;;1.80;;
76393;SDS011;65216;51.090;-115.352;2023-02-22T17:51:21;10.70;;;2.10;;
76393;SDS011;65216;51.090;-115.352;2023-02-22T17:53:50;9.70;;;2.10;;
76393;SDS011;65216;51.090;-115.352;2023-02-22T17:56:20;11.20;;;2.10;;
76393;SDS011;65216;51.090;-115.352;2023-02-22T17:58:51;9.90;;;2.00;;
76393;SDS011;65216;51.090;-115.352;2023-02-22T18:01:25;14.90;;;2.50;;
76393;SDS011;65216;51.090;-115.352;2023-02-22T18:03:57;7.90;;;2.40;;
76393;SDS011;65216;51.090;-115.352;2023-02-22T18:06:30;11.20;;;2.20;;
76393;SDS011;65216;51.090;-115.352;2023-02-22T18:08:59;11.70;;;2.30;;
76393;SDS011;65216;51.090;-115.352;2023-02-22T18:11:27;7.60;;;2.10;;
76393;SDS011;65216;51.090;-115.352;2023-02-22T18:13:58;12.50;;;2.20;;
76393;SDS011;65216;51.090;-115.352;2023-02-22T18:16:28;7.50;;;1.70;;
76393;SDS011;65216;51.090;-115.352;2023-02-22T18:18:56;10.30;;;2.30;;
76393;SDS011;65216;51.090;-115.352;2023-02-22T18:21:28;11.10;;;2.30;;
76393;SDS011;65216;51.090;-115.352;2023-02-22T18:23:55;11.40;;;2.00;;
76393;SDS011;65216;51.090;-115.352;2023-02-22T18:26:24;10.10;;;2.70;;
76393;SDS011;65216;51.090;-115.352;2023-02-22T18:28:51;9.00;;;2.20;;
76393;SDS011;65216;51.090;-115.352;2023-02-22T18:31:21;7.50;;;1.80;;
76393;SDS011;65216;51.090;-115.352;2023-02-22T18:33:50;13.30;;;2.30;;
76393;SDS011;65216;51.090;-115.352;2023-02-22T18:36:18;12.60;;;2.10;;
76393;SDS011;65216;51.090;-115.352;2023-02-22T18:38:48;10.90;;;2.30;;
76393;SDS011;65216;51.090;-115.352;2023-02-22T18:41:18;9.90;;;1.90;;
76393;SDS011;65216;51.090;-115.352;2023-02-22T18:43:52;11.70;;;2.40;;
76393;SDS011;65216;51.090;-115.352;2023-02-22T18:46:21;12.10;;;2.20;;
76393;SDS011;65216;51.090;-115.352;2023-02-22T18:48:55;7.00;;;2.00;;
76393;SDS011;65216;51.090;-115.352;2023-02-22T18:51:23;12.20;;;1.90;;
76393;SDS011;65216;51.090;-115.352;2023-02-22T18:53:51;15.00;;;2.30;;
76393;SDS011;65216;51.090;-115.352;2023-02-22T18:56:26;11.40;;;2.30;;
76393;SDS011;65216;51.090;-115.352;2023-02-22T18:58:59;10.00;;;2.20;;
76393;SDS011;65216;51.090;-115.352;2023-02-22T19:01:29;15.00;;;1.90;;
76393;SDS011;65216;51.090;-115.352;2023-02-22T19:04:07;13.50;;;2.10;;
76393;SDS011;65216;51.090;-115.352;2023-02-22T19:06:39;11.70;;;2.10;;
76393;SDS011;65216;51.090;-115.352;2023-02-22T19:09:09;8.20;;;2.50;;
76393;SDS011;65216;51.090;-115.352;2023-02-22T19:11:37;13.20;;;1.90;;
76393;SDS011;65216;51.090;-115.352;2023-02-22T19:14:09;12.40;;;2.10;;
76393;SDS011;65216;51.090;-115.352;2023-02-22T19:16:38;12.30;;;2.30;;
76393;SDS011;65216;51.090;-115.352;2023-02-22T19:19:06;6.80;;;2.10;;
76393;SDS011;65216;51.090;-115.352;2023-02-22T19:21:34;12.20;;;2.00;;
76393;SDS011;65216;51.090;-115.352;2023-02-22T19:24:02;14.00;;;2.30;;
76393;SDS011;65216;51.090;-115.352;2023-02-22T19:26:29;11.90;;;2.00;;
76393;SDS011;65216;51.090;-115.352;2023-02-22T19:28:59;11.00;;;2.10;;
76393;SDS011;65216;51.090;-115.352;2023-02-22T19:31:31;9.20;;;1.90;;
76393;SDS011;65216;51.090;-115.352;2023-02-22T19:34:04;13.00;;;2.10;;
76393;SDS011;65216;51.090;-115.352;2023-02-22T19:36:43;15.80;;;2.30;;
76393;SDS011;65216;51.090;-115.352;2023-02-22T19:39:15;17.20;;;2.50;;
76393;SDS011;65216;51.090;-115.352;2023-02-22T19:41:44;10.90;;;2.40;;
76393;SDS011;65216;51.090;-115.352;2023-02-22T19:44:12;18.00;;;2.50;;
76393;SDS011;65216;51.090;-115.352;2023-02-22T19:46:40;12.10;;;2.00;;
76393;SDS011;65216;51.090;-115.352;2023-02-22T19:49:07;9.50;;;1.50;;
76393;SDS011;65216;51.090;-115.352;2023-02-22T19:51:38;8.50;;;1.70;;
76393;SDS011;65216;51.090;-115.352;2023-02-22T19:54:12;9.90;;;2.10;;
76393;SDS011;65216;51.090;-115.352;2023-02-22T19:56:42;13.60;;;1.90;;
76393;SDS011;65216;51.090;-115.352;2023-02-22T19:59:10;12.50;;;2.10;;
76393;SDS011;65216;51.090;-115.352;2023-02-22T20:01:44;13.60;;;2.00;;
76393;SDS011;65216;51.090;-115.352;2023-02-22T20:04:13;17.20;;;2.30;;
76393;SDS011;65216;51.090;-115.352;2023-02-22T20:06:50;12.20;;;1.80;;
76393;SDS011;65216;51.090;-115.352;2023-02-22T20:09:29;12.10;;;1.90;;
76393;SDS011;65216;51.090;-115.352;2023-02-22T20:12:05;16.10;;;2.50;;
76393;SDS011;65216;51.090;-115.352;2023-02-22T20:14:36;9.80;;;1.90;;
76393;SDS011;65216;51.090;-115.352;2023-02-22T20:17:03;12.90;;;2.10;;
76393;SDS011;65216;51.090;-115.352;2023-02-22T20:19:35;11.10;;;2.00;;
76393;SDS011;65216;51.090;-115.352;2023-02-22T20:24:35;14.40;;;2.00;;
76393;SDS011;65216;51.090;-115.352;2023-02-22T20:27:06;11.10;;;2.20;;
76393;SDS011;65216;51.090;-115.352;2023-02-22T20:29:34;13.60;;;2.10;;
76393;SDS011;65216;51.090;-115.352;2023-02-22T20:32:02;10.10;;;1.90;;
76393;SDS011;65216;51.090;-115.352;2023-02-22T20:34:30;11.50;;;2.40;;
76393;SDS011;65216;51.090;-115.352;2023-02-22T20:37:02;15.90;;;2.30;;
76393;SDS011;65216;51.090;-115.352;2023-02-22T20:39:30;12.60;;;2.40;;
76393;SDS011;65216;51.090;-115.352;2023-02-22T20:41:57;9.70;;;2.10;;
76393;SDS011;65216;51.090;-115.352;2023-02-22T20:44:25;12.70;;;2.30;;
76393;SDS011;65216;51.090;-115.352;2023-02-22T20:46:56;13.40;;;2.30;;
76393;SDS011;65216;51.090;-115.352;2023-02-22T20:49:25;15.00;;;2.70;;
76393;SDS011;65216;51.090;-115.352;2023-02-22T20:51:53;11.70;;;2.40;;
76393;SDS011;65216;51.090;-115.352;2023-02-22T20:54:20;13.70;;;2.40;;
76393;SDS011;65216;51.090;-115.352;2023-02-22T20:56:47;13.40;;;2.30;;
76393;SDS011;65216;51.090;-115.352;2023-02-22T20:59:17;16.90;;;2.30;;
76393;SDS011;65216;51.090;-115.352;2023-02-22T21:01:48;13.80;;;2.40;;
76393;SDS011;65216;51.090;-115.352;2023-02-22T21:04:21;14.40;;;2.40;;
76393;SDS011;65216;51.090;-115.352;2023-02-22T21:06:48;12.70;;;2.30;;
76393;SDS011;65216;51.090;-115.352;2023-02-22T21:09:20;16.40;;;2.30;;
76393;SDS011;65216;51.090;-115.352;2023-02-22T21:11:47;13.90;;;2.20;;
76393;SDS011;65216;51.090;-115.352;2023-02-22T21:14:16;12.30;;;2.60;;
76393;SDS011;65216;51.090;-115.352;2023-02-22T21:16:46;16.80;;;2.50;;
76393;SDS011;65216;51.090;-115.352;2023-02-22T21:19:15;15.90;;;2.60;;
76393;SDS011;65216;51.090;-115.352;2023-02-22T21:21:54;13.10;;;2.30;;
76393;SDS011;65216;51.090;-115.352;2023-02-22T21:26:52;11.00;;;2.00;;
76393;SDS011;65216;51.090;-115.352;2023-02-22T21:29:20;15.40;;;2.30;;
76393;SDS011;65216;51.090;-115.352;2023-02-22T21:31:47;11.30;;;2.10;;
76393;SDS011;65216;51.090;-115.352;2023-02-22T21:34:20;10.80;;;1.90;;
76393;SDS011;65216;51.090;-115.352;2023-02-22T21:36:48;10.30;;;1.90;;
76393;SDS011;65216;51.090;-115.352;2023-02-22T21:39:17;11.00;;;2.00;;
76393;SDS011;65216;51.090;-115.352;2023-02-22T21:41:49;12.80;;;2.00;;
76393;SDS011;65216;51.090;-115.352;2023-02-22T21:44:17;13.80;;;2.20;;
76393;SDS011;65216;51.090;-115.352;2023-02-22T21:46:45;13.50;;;1.80;;
76393;SDS011;65216;51.090;-115.352;2023-02-22T21:49:15;9.60;;;2.20;;
76393;SDS011;65216;51.090;-115.352;2023-02-22T21:51:43;16.70;;;2.00;;
76393;SDS011;65216;51.090;-115.352;2023-02-22T21:54:14;11.70;;;2.30;;
76393;SDS011;65216;51.090;-115.352;2023-02-22T21:56:42;13.60;;;1.90;;
76393;SDS011;65216;51.090;-115.352;2023-02-22T21:59:18;12.10;;;2.70;;
76393;SDS011;65216;51.090;-115.352;2023-02-22T22:01:51;15.00;;;2.20;;
76393;SDS011;65216;51.090;-115.352;2023-02-22T22:04:23;9.60;;;1.90;;
76393;SDS011;65216;51.090;-115.352;2023-02-22T22:06:55;17.80;;;2.30;;
76393;SDS011;65216;51.090;-115.352;2023-02-22T22:09:26;10.00;;;1.90;;
76393;SDS011;65216;51.090;-115.352;2023-02-22T22:11:59;17.80;;;2.20;;
76393;SDS011;65216;51.090;-115.352;2023-02-22T22:14:33;10.90;;;2.00;;
76393;SDS011;65216;51.090;-115.352;2023-02-22T22:17:02;15.20;;;1.90;;
76393;SDS011;65216;51.090;-115.352;2023-02-22T22:19:35;10.90;;;2.00;;
76393;SDS011;65216;51.090;-115.352;2023-02-22T22:22:06;10.60;;;1.90;;
76393;SDS011;65216;51.090;-115.352;2023-02-22T22:24:34;13.10;;;1.80;;
76393;SDS011;65216;51.090;-115.352;2023-02-22T22:27:02;12.40;;;2.40;;
76393;SDS011;65216;51.090;-115.352;2023-02-22T22:29:34;14.40;;;2.00;;
76393;SDS011;65216;51.090;-115.352;2023-02-22T22:32:02;14.00;;;2.20;;
76393;SDS011;65216;51.090;-115.352;2023-02-22T22:34:35;12.00;;;2.20;;
76393;SDS011;65216;51.090;-115.352;2023-02-22T22:37:03;11.50;;;2.20;;
76393;SDS011;65216;51.090;-115.352;2023-02-22T22:39:30;10.10;;;1.80;;
76393;SDS011;65216;51.090;-115.352;2023-02-22T22:41:57;14.90;;;2.40;;
76393;SDS011;65216;51.090;-115.352;2023-02-22T22:44:24;9.90;;;2.10;;